createdAt,value
2022-10-19T00:01:18.959Z,20.30
2022-10-19T00:06:30.053Z,21.73
2022-10-19T00:09:04.350Z,20.33
2022-10-19T00:11:34.242Z,20.90
2022-10-19T00:14:02.393Z,21.33
2022-10-19T00:16:33.475Z,22.95
2022-10-19T00:19:04.613Z,22.08
2022-10-19T00:21:32.600Z,20.65
2022-10-19T00:24:00.331Z,22.13
2022-10-19T00:26:28.113Z,21.77
2022-10-19T00:28:57.162Z,20.63
2022-10-19T00:31:25.338Z,20.77
2022-10-19T00:33:54.113Z,20.98
2022-10-19T00:36:38.098Z,22.67
2022-10-19T00:39:11.342Z,23.83
2022-10-19T00:41:40.036Z,20.35
2022-10-19T00:44:30.235Z,21.55
2022-10-19T00:47:05.398Z,21.20
2022-10-19T00:49:43.528Z,21.52
2022-10-19T00:52:15.641Z,22.20
2022-10-19T00:54:45.678Z,21.50
2022-10-19T00:57:14.442Z,20.35
2022-10-19T00:59:44.604Z,22.27
2022-10-19T01:02:13.245Z,23.70
2022-10-19T01:04:47.886Z,21.63
2022-10-19T01:07:16.336Z,21.58
2022-10-19T01:09:44.107Z,21.10
2022-10-19T01:12:11.872Z,21.63
2022-10-19T01:14:59.114Z,22.15
2022-10-19T01:17:38.617Z,20.70
2022-10-19T01:20:14.429Z,20.85
2022-10-19T01:23:03.163Z,20.67
2022-10-19T01:26:00.594Z,21.30
2022-10-19T01:28:38.259Z,20.65
2022-10-19T01:31:44.251Z,21.00
2022-10-19T01:34:35.195Z,21.33
2022-10-19T01:37:15.909Z,20.80
2022-10-19T01:40:15.413Z,21.83
2022-10-19T01:42:49.649Z,21.85
2022-10-19T01:45:19.524Z,21.20
2022-10-19T01:47:47.191Z,20.77
2022-10-19T01:50:31.740Z,22.75
2022-10-19T01:55:28.902Z,22.27
2022-10-19T01:58:08.231Z,22.67
2022-10-19T02:00:41.916Z,20.92
2022-10-19T02:03:10.758Z,22.63
2022-10-19T02:05:40.832Z,21.75
2022-10-19T02:08:16.215Z,21.40
2022-10-19T02:10:45.948Z,21.27
2022-10-19T02:13:16.630Z,20.15
2022-10-19T02:15:50.117Z,21.30
2022-10-19T02:18:25.451Z,21.80
2022-10-19T02:20:53.453Z,20.13
2022-10-19T02:23:24.284Z,20.08
2022-10-19T02:25:52.116Z,21.77
2022-10-19T02:28:20.656Z,21.42
2022-10-19T02:30:48.763Z,20.48
2022-10-19T02:33:17.013Z,19.42
2022-10-19T02:35:44.743Z,21.02
2022-10-19T02:38:17.130Z,20.90
2022-10-19T02:40:52.223Z,19.95
2022-10-19T02:43:23.290Z,21.08
2022-10-19T02:46:02.554Z,19.90
2022-10-19T02:48:33.498Z,22.35
2022-10-19T02:51:01.342Z,20.08
2022-10-19T02:53:29.030Z,21.67
2022-10-19T02:55:56.781Z,21.00
2022-10-19T02:58:24.631Z,21.38
2022-10-19T03:00:52.447Z,19.83
2022-10-19T03:03:20.213Z,19.95
2022-10-19T03:05:47.962Z,22.98
2022-10-19T03:08:15.768Z,21.30
2022-10-19T03:10:43.455Z,20.52
2022-10-19T03:13:11.187Z,21.80
2022-10-19T03:15:39.037Z,22.02
2022-10-19T03:18:06.879Z,21.55
2022-10-19T03:20:34.611Z,22.08
2022-10-19T03:23:02.332Z,21.65
2022-10-19T03:25:30.092Z,22.38
2022-10-19T03:27:57.881Z,22.35
2022-10-19T03:30:25.819Z,22.13
2022-10-19T03:32:53.572Z,22.60
2022-10-19T03:35:21.411Z,22.00
2022-10-19T03:37:49.196Z,21.65
2022-10-19T03:40:17.085Z,20.95
2022-10-19T03:42:44.942Z,21.63
2022-10-19T03:45:12.632Z,21.52
2022-10-19T03:47:40.480Z,19.77
2022-10-19T03:50:11.483Z,21.33
2022-10-19T03:52:39.172Z,19.98
2022-10-19T03:55:07.643Z,22.55
2022-10-19T03:57:35.627Z,23.17
2022-10-19T04:00:07.079Z,21.52
2022-10-19T04:02:39.759Z,23.98
2022-10-19T04:05:08.049Z,22.63
2022-10-19T04:07:36.117Z,22.20
2022-10-19T04:10:04.381Z,22.13
2022-10-19T04:12:32.183Z,22.42
2022-10-19T04:15:00.010Z,20.75
2022-10-19T04:17:27.774Z,21.88
2022-10-19T04:19:55.574Z,23.02
2022-10-19T04:22:23.294Z,21.40
2022-10-19T04:24:51.053Z,23.13
2022-10-19T04:27:18.854Z,22.83
2022-10-19T04:29:46.708Z,23.00
2022-10-19T04:32:14.427Z,22.92
2022-10-19T04:34:42.126Z,22.75
2022-10-19T04:37:10.008Z,23.50
2022-10-19T04:39:40.952Z,22.88
2022-10-19T04:42:08.605Z,22.25
2022-10-19T04:44:36.664Z,21.50
2022-10-19T04:47:04.363Z,22.83
2022-10-19T04:49:32.059Z,23.30
2022-10-19T04:51:59.708Z,22.30
2022-10-19T04:54:27.390Z,22.73
2022-10-19T04:56:55.166Z,21.10
2022-10-19T04:59:22.945Z,22.30
2022-10-19T05:01:50.711Z,21.90
2022-10-19T05:04:18.798Z,23.05
2022-10-19T05:06:46.589Z,22.33
2022-10-19T05:09:14.321Z,21.92
2022-10-19T05:11:42.177Z,22.77
2022-10-19T05:14:09.915Z,23.17
2022-10-19T05:16:37.932Z,21.67
2022-10-19T05:19:05.706Z,21.48
2022-10-19T05:21:33.644Z,21.98
2022-10-19T05:24:01.452Z,22.98
2022-10-19T05:26:30.323Z,20.85
2022-10-19T05:29:02.042Z,22.48
2022-10-19T05:31:32.182Z,22.10
2022-10-19T05:34:01.389Z,19.88
2022-10-19T05:36:35.081Z,23.17
2022-10-19T05:39:13.874Z,22.17
2022-10-19T05:41:44.576Z,21.30
2022-10-19T05:44:18.614Z,21.65
2022-10-19T05:49:16.212Z,21.67
2022-10-19T05:51:44.092Z,22.77
2022-10-19T05:54:13.132Z,21.75
2022-10-19T05:56:41.882Z,22.10
2022-10-19T05:59:14.152Z,20.38
2022-10-19T06:01:42.178Z,21.83
2022-10-19T06:04:10.968Z,22.58
2022-10-19T06:06:38.758Z,19.95
2022-10-19T06:09:06.541Z,20.83
2022-10-19T06:11:37.474Z,21.15
2022-10-19T06:14:08.621Z,21.38
2022-10-19T06:16:36.468Z,21.85
2022-10-19T06:19:05.508Z,20.70
2022-10-19T06:21:34.328Z,20.10
2022-10-19T06:24:04.990Z,19.80
2022-10-19T06:26:34.921Z,18.50
2022-10-19T06:29:03.885Z,18.73
2022-10-19T06:31:35.737Z,19.65
2022-10-19T06:34:03.710Z,20.17
2022-10-19T06:36:32.914Z,20.08
2022-10-19T06:39:02.020Z,19.13
2022-10-19T06:41:31.946Z,17.77
2022-10-19T06:44:14.843Z,17.90
2022-10-19T06:46:42.569Z,18.65
2022-10-19T06:49:14.320Z,19.35
2022-10-19T06:51:42.189Z,18.75
2022-10-19T06:54:10.004Z,18.08
2022-10-19T06:56:37.836Z,19.75
2022-10-19T06:59:05.649Z,19.83
2022-10-19T07:01:33.464Z,21.15
2022-10-19T07:04:01.352Z,19.73
2022-10-19T07:06:29.345Z,20.40
2022-10-19T07:08:57.178Z,20.38
2022-10-19T07:11:24.921Z,21.08
2022-10-19T07:13:53.524Z,21.38
2022-10-19T07:16:22.086Z,22.10
2022-10-19T07:18:52.211Z,21.48
2022-10-19T07:21:22.814Z,20.55
2022-10-19T07:23:50.754Z,18.05
2022-10-19T07:26:26.772Z,22.80
2022-10-19T07:28:57.294Z,21.92
2022-10-19T07:31:26.596Z,21.45
2022-10-19T07:33:59.787Z,23.10
2022-10-19T07:36:29.236Z,21.98
2022-10-19T07:38:57.304Z,23.25
2022-10-19T07:41:26.505Z,23.92
2022-10-19T07:43:54.742Z,21.75
2022-10-19T07:46:25.463Z,21.63
2022-10-19T07:48:54.001Z,23.40
2022-10-19T07:51:22.706Z,24.30
2022-10-19T07:53:50.649Z,23.15
2022-10-19T07:56:23.885Z,23.92
2022-10-19T07:58:53.887Z,23.53
2022-10-19T08:01:26.760Z,23.83
2022-10-19T08:06:44.121Z,24.73
2022-10-19T08:09:27.769Z,23.20
2022-10-19T08:11:59.929Z,24.55
2022-10-19T08:14:27.982Z,23.75
2022-10-19T08:16:55.699Z,22.58
2022-10-19T08:19:24.329Z,22.50
2022-10-19T08:21:52.126Z,23.08
2022-10-19T08:24:20.808Z,21.33
2022-10-19T08:26:51.352Z,22.98
2022-10-19T08:29:21.099Z,22.92
2022-10-19T08:31:49.624Z,23.20
2022-10-19T08:34:17.617Z,22.30
2022-10-19T08:36:45.429Z,24.38
2022-10-19T08:39:13.702Z,23.92
2022-10-19T08:41:41.526Z,24.35
2022-10-19T08:44:28.552Z,22.95
2022-10-19T08:47:05.222Z,20.27
2022-10-19T08:49:35.999Z,22.55
2022-10-19T08:52:32.037Z,21.80
2022-10-19T08:55:09.285Z,20.88
2022-10-19T08:57:53.903Z,22.52
2022-10-19T09:00:47.806Z,21.15
2022-10-19T09:03:55.132Z,22.17
2022-10-19T09:06:27.333Z,21.35
2022-10-19T09:08:57.141Z,21.58
2022-10-19T09:11:29.742Z,23.25
2022-10-19T09:14:13.297Z,20.38
2022-10-19T09:16:41.243Z,24.63
2022-10-19T09:19:30.110Z,21.45
2022-10-19T09:22:19.648Z,21.85
2022-10-19T09:24:50.835Z,22.65
2022-10-19T09:27:27.951Z,22.00
2022-10-19T09:30:03.855Z,20.75
2022-10-19T09:32:35.491Z,22.88
2022-10-19T09:35:05.785Z,21.38
2022-10-19T09:37:47.186Z,23.00
2022-10-19T09:40:25.059Z,21.77
2022-10-19T09:42:57.475Z,20.98
2022-10-19T09:45:46.475Z,23.15
2022-10-19T09:48:39.612Z,22.33
2022-10-19T09:51:16.550Z,22.38
2022-10-19T09:53:51.201Z,21.65
2022-10-19T09:56:27.401Z,20.48
2022-10-19T09:58:57.773Z,21.17
2022-10-19T10:01:43.783Z,20.75
2022-10-19T10:04:17.629Z,23.55
2022-10-19T10:06:48.499Z,22.90
2022-10-19T10:09:23.693Z,20.80
2022-10-19T10:14:34.201Z,22.17
2022-10-19T10:17:05.117Z,22.40
2022-10-19T10:19:36.166Z,22.67
2022-10-19T10:22:04.795Z,22.38
2022-10-19T10:24:34.396Z,22.25
2022-10-19T10:27:06.098Z,23.63
2022-10-19T10:29:39.354Z,23.00
2022-10-19T10:32:16.416Z,21.95
2022-10-19T10:34:53.825Z,21.60
2022-10-19T10:37:38.383Z,23.55
2022-10-19T10:40:19.853Z,21.83
2022-10-19T10:42:50.335Z,23.60
2022-10-19T10:45:24.114Z,23.02
2022-10-19T10:47:53.093Z,23.73
2022-10-19T10:50:35.911Z,25.00
2022-10-19T10:53:06.487Z,24.83
2022-10-19T10:55:34.945Z,23.95
2022-10-19T10:58:25.457Z,26.15
2022-10-19T11:00:56.824Z,25.00
2022-10-19T11:03:32.935Z,27.42
2022-10-19T11:06:03.005Z,26.67
2022-10-19T11:08:52.373Z,24.38
2022-10-19T11:11:25.896Z,25.20
2022-10-19T11:14:31.425Z,25.17
2022-10-19T11:17:05.988Z,25.55
2022-10-19T11:19:37.620Z,25.65
2022-10-19T11:22:14.255Z,25.38
2022-10-19T11:25:00.426Z,27.20
2022-10-19T11:27:34.674Z,25.90
2022-10-19T11:30:32.521Z,26.02
2022-10-19T11:33:36.030Z,24.08
2022-10-19T11:36:18.538Z,25.15
2022-10-19T11:39:16.105Z,25.10
2022-10-19T11:42:15.289Z,25.17
2022-10-19T11:45:10.019Z,24.15
2022-10-19T11:48:26.115Z,23.15
2022-10-19T11:51:20.754Z,21.20
2022-10-19T11:54:07.516Z,22.20
2022-10-19T11:57:04.034Z,22.52
2022-10-19T11:59:48.288Z,24.15
2022-10-19T12:03:04.162Z,24.02
2022-10-19T12:06:18.383Z,24.63
2022-10-19T12:09:04.413Z,26.17
2022-10-19T12:12:17.017Z,24.10
2022-10-19T12:14:48.454Z,21.88
2022-10-19T12:17:24.022Z,22.08
2022-10-19T12:19:56.066Z,22.75
2022-10-19T12:22:28.867Z,21.77
2022-10-19T12:25:00.434Z,22.45
2022-10-19T12:27:39.533Z,22.45
2022-10-19T12:30:27.775Z,23.35
2022-10-19T12:33:23.296Z,22.35
2022-10-19T12:36:20.744Z,22.92
2022-10-19T12:39:02.894Z,21.73
2022-10-19T12:41:44.708Z,22.92
2022-10-19T12:44:19.521Z,22.20
2022-10-19T12:46:53.806Z,23.30
2022-10-19T12:49:29.069Z,20.67
2022-10-19T12:51:59.226Z,21.70
2022-10-19T12:54:30.301Z,21.88
2022-10-19T12:57:00.738Z,21.25
2022-10-19T12:59:34.226Z,22.55
2022-10-19T13:02:05.754Z,20.77
2022-10-19T13:04:36.239Z,19.30
2022-10-19T13:07:10.991Z,18.33
2022-10-19T13:09:44.372Z,18.90
2022-10-19T13:12:19.374Z,16.83
2022-10-19T13:15:00.357Z,16.63
2022-10-19T13:17:35.028Z,17.67
2022-10-19T13:20:15.075Z,16.27
2022-10-19T13:23:09.697Z,16.92
2022-10-19T13:25:39.015Z,16.52
2022-10-19T13:28:06.776Z,16.48
2022-10-19T13:30:38.354Z,18.00
2022-10-19T13:33:33.378Z,17.17
2022-10-19T13:36:02.565Z,18.73
2022-10-19T13:38:53.345Z,18.20
2022-10-19T13:41:48.223Z,19.85
2022-10-19T13:44:25.126Z,17.38
2022-10-19T13:47:22.562Z,17.77
2022-10-19T13:50:22.715Z,16.83
2022-10-19T13:53:13.121Z,18.30
2022-10-19T13:56:01.959Z,19.23
2022-10-19T13:58:59.046Z,17.98
2022-10-19T14:01:46.022Z,16.30
2022-10-19T14:04:23.470Z,16.98
2022-10-19T14:06:51.495Z,17.42
2022-10-19T14:09:22.107Z,16.52
2022-10-19T14:11:54.551Z,15.82
2022-10-19T14:14:25.083Z,15.35
2022-10-19T14:17:04.411Z,15.77
2022-10-19T14:19:48.011Z,16.70
2022-10-19T14:22:27.551Z,16.48
2022-10-19T14:25:01.537Z,17.33
2022-10-19T14:29:59.538Z,16.75
2022-10-19T14:32:30.415Z,19.40
2022-10-19T14:37:43.964Z,18.67
2022-10-19T14:40:26.536Z,19.65
2022-10-19T14:43:01.404Z,17.90
2022-10-19T14:45:32.814Z,18.30
2022-10-19T14:48:04.153Z,17.40
2022-10-19T14:50:42.218Z,16.48
2022-10-19T14:53:36.705Z,15.77
2022-10-19T14:56:32.536Z,15.60
2022-10-19T14:59:20.231Z,16.42
2022-10-19T15:01:54.999Z,17.95
2022-10-19T15:04:26.743Z,16.88
2022-10-19T15:06:55.892Z,17.42
2022-10-19T15:09:37.016Z,18.23
2022-10-19T15:12:14.555Z,17.92
2022-10-19T15:14:43.004Z,18.65
2022-10-19T15:17:29.151Z,17.30
2022-10-19T15:20:01.125Z,19.17
2022-10-19T15:22:33.611Z,18.58
2022-10-19T15:25:08.208Z,17.60
2022-10-19T15:30:25.201Z,17.70
2022-10-19T15:33:02.069Z,17.15
2022-10-19T15:35:34.290Z,16.70
2022-10-19T15:38:23.368Z,17.38
2022-10-19T15:40:58.085Z,17.80
2022-10-19T15:43:34.492Z,18.17
2022-10-19T15:46:05.098Z,17.92
2022-10-19T15:48:41.940Z,17.27
2022-10-19T15:51:27.764Z,18.65
2022-10-19T15:53:57.682Z,18.55
2022-10-19T15:56:28.071Z,15.60
2022-10-19T15:58:58.572Z,16.77
2022-10-19T16:01:28.834Z,16.08
2022-10-19T16:03:56.982Z,17.38
2022-10-19T16:06:33.653Z,17.13
2022-10-19T16:09:02.033Z,16.70
2022-10-19T16:11:31.238Z,17.83
2022-10-19T16:13:59.131Z,17.73
2022-10-19T16:16:32.555Z,17.42
2022-10-19T16:19:01.240Z,17.05
2022-10-19T16:21:33.585Z,17.10
2022-10-19T16:24:01.544Z,16.92
2022-10-19T16:26:29.560Z,17.63
2022-10-19T16:28:57.332Z,16.63
2022-10-19T16:31:25.168Z,15.90
2022-10-19T16:33:53.135Z,15.20
2022-10-19T16:36:21.037Z,16.48
2022-10-19T16:38:49.179Z,15.63
2022-10-19T16:41:17.193Z,16.48
2022-10-19T16:43:45.433Z,17.10
2022-10-19T16:46:13.131Z,16.88
2022-10-19T16:48:40.858Z,15.48
2022-10-19T16:51:10.418Z,17.02
2022-10-19T16:53:38.903Z,17.50
2022-10-19T16:56:09.907Z,17.35
2022-10-19T16:58:38.177Z,16.27
2022-10-19T17:01:09.423Z,17.58
2022-10-19T17:03:37.520Z,17.65
2022-10-19T17:06:07.137Z,18.13
2022-10-19T17:09:02.350Z,16.08
2022-10-19T17:11:27.733Z,16.73
2022-10-19T17:13:58.276Z,16.58
2022-10-19T17:16:27.715Z,16.08
2022-10-19T17:18:57.250Z,17.40
2022-10-19T17:21:28.550Z,17.17
2022-10-19T17:23:59.002Z,15.80
2022-10-19T17:26:30.972Z,16.35
2022-10-19T17:28:59.514Z,16.98
2022-10-19T17:31:28.204Z,15.18
2022-10-19T17:33:56.822Z,16.40
2022-10-19T17:36:28.285Z,17.13
2022-10-19T17:38:58.027Z,16.50
2022-10-19T17:41:27.209Z,16.77
2022-10-19T17:43:55.612Z,17.60
2022-10-19T17:46:27.135Z,16.58
2022-10-19T17:48:56.292Z,17.88
2022-10-19T17:51:30.223Z,17.70
2022-10-19T17:54:07.450Z,19.10
2022-10-19T17:56:37.424Z,17.17
2022-10-19T17:59:08.060Z,19.00
2022-10-19T18:01:37.229Z,17.35
2022-10-19T18:04:05.585Z,18.13
2022-10-19T18:06:36.232Z,19.98
2022-10-19T18:09:07.126Z,18.00
2022-10-19T18:11:38.759Z,19.10
2022-10-19T18:14:08.530Z,18.27
2022-10-19T18:16:41.302Z,20.55
2022-10-19T18:19:09.477Z,18.40
2022-10-19T18:21:40.832Z,19.00
2022-10-19T18:24:15.141Z,17.35
2022-10-19T18:26:43.679Z,19.30
2022-10-19T18:29:15.512Z,17.67
2022-10-19T18:31:43.523Z,18.40
2022-10-19T18:34:15.024Z,16.48
2022-10-19T18:36:43.774Z,18.52
2022-10-19T18:39:14.000Z,18.02
2022-10-19T18:41:42.391Z,16.77
2022-10-19T18:44:13.674Z,18.25
2022-10-19T18:46:42.659Z,19.30
2022-10-19T18:49:13.500Z,16.83
2022-10-19T18:51:42.305Z,18.73
2022-10-19T18:54:11.803Z,18.25
2022-10-19T18:56:39.565Z,19.23
2022-10-19T18:59:07.485Z,20.00
2022-10-19T19:01:35.484Z,18.10
2022-10-19T19:04:09.212Z,19.05
2022-10-19T19:06:38.626Z,19.98
2022-10-19T19:09:09.741Z,18.77
2022-10-19T19:11:40.958Z,20.27
2022-10-19T19:14:15.423Z,19.02
2022-10-19T19:16:44.688Z,20.13
2022-10-19T19:19:15.510Z,19.73
2022-10-19T19:21:44.927Z,20.88
2022-10-19T19:24:18.652Z,19.98
2022-10-19T19:26:50.320Z,21.25
2022-10-19T19:29:20.196Z,20.40
2022-10-19T19:31:50.166Z,22.90
2022-10-19T19:34:22.315Z,20.67
2022-10-19T19:36:50.765Z,20.70
2022-10-19T19:39:25.385Z,20.38
2022-10-19T19:41:54.052Z,19.60
2022-10-19T19:44:22.890Z,19.88
2022-10-19T19:46:52.488Z,20.20
2022-10-19T19:49:25.092Z,19.23
2022-10-19T19:51:54.422Z,20.25
2022-10-19T19:54:22.656Z,18.27
2022-10-19T19:56:57.181Z,19.80
2022-10-19T19:59:24.957Z,17.73
2022-10-19T20:01:52.934Z,19.25
2022-10-19T20:04:20.808Z,17.83
2022-10-19T20:06:48.604Z,17.52
2022-10-19T20:09:16.339Z,17.95
2022-10-19T20:11:44.383Z,17.55
2022-10-19T20:14:12.853Z,17.80
2022-10-19T20:16:40.978Z,17.23
2022-10-19T20:19:14.137Z,17.42
2022-10-19T20:21:42.814Z,17.37
2022-10-19T20:24:11.029Z,17.50
2022-10-19T20:26:39.063Z,18.13
2022-10-19T20:29:06.868Z,17.70
2022-10-19T20:31:39.633Z,15.90
2022-10-19T20:34:10.142Z,17.07
2022-10-19T20:36:38.796Z,15.82
2022-10-19T20:39:07.525Z,17.17
2022-10-19T20:41:36.355Z,16.35
2022-10-19T20:44:05.388Z,17.38
2022-10-19T20:46:33.416Z,16.35
2022-10-19T20:49:02.234Z,14.85
2022-10-19T20:51:33.198Z,16.00
2022-10-19T20:54:04.074Z,14.45
2022-10-19T20:56:34.673Z,14.27
2022-10-19T20:59:08.166Z,15.02
2022-10-19T21:01:38.068Z,15.20
2022-10-19T21:04:08.431Z,14.77
2022-10-19T21:06:40.331Z,15.07
2022-10-19T21:09:09.405Z,13.55
2022-10-19T21:11:39.678Z,13.57
2022-10-19T21:14:22.358Z,12.57
2022-10-19T21:16:56.689Z,11.35
2022-10-19T21:19:26.425Z,11.70
2022-10-19T21:21:58.243Z,11.23
2022-10-19T21:24:28.989Z,11.65
2022-10-19T21:26:57.457Z,12.57
2022-10-19T21:29:25.288Z,10.70
2022-10-19T21:31:54.081Z,11.45
2022-10-19T21:34:24.967Z,11.02
2022-10-19T21:36:53.547Z,12.77
2022-10-19T21:39:21.981Z,11.68
2022-10-19T21:41:50.399Z,11.77
2022-10-19T21:44:18.933Z,11.25
2022-10-19T21:46:50.513Z,11.57
2022-10-19T21:49:18.800Z,11.50
2022-10-19T21:51:49.372Z,12.35
2022-10-19T21:54:19.930Z,11.23
2022-10-19T21:56:48.568Z,11.10
2022-10-19T21:59:17.229Z,12.27
2022-10-19T22:01:45.118Z,11.05
2022-10-19T22:04:16.922Z,11.43
2022-10-19T22:06:45.023Z,11.25
2022-10-19T22:09:16.505Z,11.55
2022-10-19T22:11:44.637Z,10.68
2022-10-19T22:14:14.597Z,11.05
2022-10-19T22:16:42.813Z,11.50
2022-10-19T22:19:11.399Z,10.60
2022-10-19T22:21:39.765Z,11.25
2022-10-19T22:24:11.113Z,11.10
2022-10-19T22:26:42.398Z,11.27
2022-10-19T22:29:10.548Z,10.95
2022-10-19T22:31:38.849Z,11.00
2022-10-19T22:34:09.988Z,11.23
2022-10-19T22:36:38.129Z,10.75
2022-10-19T22:39:06.001Z,11.38
2022-10-19T22:42:29.711Z,10.43
2022-10-19T22:46:12.166Z,10.80
2022-10-19T22:49:54.559Z,11.05
2022-10-19T22:52:59.363Z,11.15
2022-10-19T22:55:27.218Z,10.85
2022-10-19T22:57:54.967Z,11.48
2022-10-19T23:00:23.000Z,12.40
2022-10-19T23:02:50.794Z,12.13
2022-10-19T23:05:18.744Z,11.70
2022-10-19T23:07:46.569Z,11.85
2022-10-19T23:10:14.369Z,10.95
2022-10-19T23:12:42.282Z,11.60
2022-10-19T23:15:10.719Z,12.38
2022-10-19T23:17:38.688Z,12.90
2022-10-19T23:20:07.116Z,12.05
2022-10-19T23:22:34.925Z,12.52
2022-10-19T23:25:02.682Z,11.98
2022-10-19T23:27:31.014Z,11.05
2022-10-19T23:29:59.384Z,12.52
2022-10-19T23:32:27.130Z,10.65
2022-10-19T23:34:54.952Z,11.43
2022-10-19T23:37:22.766Z,12.55
2022-10-19T23:39:50.516Z,11.32
2022-10-19T23:42:18.315Z,11.70
2022-10-19T23:44:46.111Z,11.60
2022-10-19T23:47:13.839Z,11.07
2022-10-19T23:49:41.587Z,12.05
2022-10-19T23:52:09.424Z,12.20
2022-10-19T23:54:37.182Z,11.23
2022-10-19T23:57:04.975Z,12.05
2022-10-19T23:59:33.108Z,11.63
